sensor_id;sensor_type;location;lat;lon;timestamp;P1;durP1;ratioP1;P2;durP2;ratioP2
18172;SDS011;9211;48.818;9.312;2023-12-20T00:01:04;2.72;;;1.48;;
18172;SDS011;9211;48.818;9.312;2023-12-20T00:03:31;2.28;;;1.48;;
18172;SDS011;9211;48.818;9.312;2023-12-20T00:05:58;1.80;;;1.30;;
18172;SDS011;9211;48.818;9.312;2023-12-20T00:08:25;2.85;;;1.45;;
18172;SDS011;9211;48.818;9.312;2023-12-20T00:10:52;1.80;;;1.30;;
18172;SDS011;9211;48.818;9.312;2023-12-20T00:13:19;2.88;;;1.60;;
18172;SDS011;9211;48.818;9.312;2023-12-20T00:15:47;1.73;;;1.20;;
18172;SDS011;9211;48.818;9.312;2023-12-20T00:18:14;2.90;;;1.30;;
18172;SDS011;9211;48.818;9.312;2023-12-20T00:20:41;1.58;;;1.20;;
18172;SDS011;9211;48.818;9.312;2023-12-20T00:23:08;1.75;;;1.15;;
18172;SDS011;9211;48.818;9.312;2023-12-20T00:25:35;2.65;;;1.10;;
18172;SDS011;9211;48.818;9.312;2023-12-20T00:28:01;1.90;;;1.20;;
18172;SDS011;9211;48.818;9.312;2023-12-20T00:30:29;1.85;;;1.10;;
18172;SDS011;9211;48.818;9.312;2023-12-20T00:32:57;1.63;;;1.00;;
18172;SDS011;9211;48.818;9.312;2023-12-20T00:35:24;1.90;;;1.10;;
18172;SDS011;9211;48.818;9.312;2023-12-20T00:37:51;2.30;;;1.17;;
18172;SDS011;9211;48.818;9.312;2023-12-20T00:40:17;1.80;;;1.13;;
18172;SDS011;9211;48.818;9.312;2023-12-20T00:42:45;2.00;;;0.97;;
18172;SDS011;9211;48.818;9.312;2023-12-20T00:45:13;2.78;;;1.08;;
18172;SDS011;9211;48.818;9.312;2023-12-20T00:47:40;1.60;;;1.00;;
18172;SDS011;9211;48.818;9.312;2023-12-20T00:50:09;1.70;;;1.10;;
18172;SDS011;9211;48.818;9.312;2023-12-20T00:52:36;3.17;;;1.10;;
18172;SDS011;9211;48.818;9.312;2023-12-20T00:55:03;2.23;;;1.10;;
18172;SDS011;9211;48.818;9.312;2023-12-20T00:57:31;1.55;;;1.10;;
18172;SDS011;9211;48.818;9.312;2023-12-20T00:59:58;2.35;;;1.05;;
18172;SDS011;9211;48.818;9.312;2023-12-20T01:02:25;1.83;;;0.93;;
18172;SDS011;9211;48.818;9.312;2023-12-20T01:04:52;3.20;;;1.10;;
18172;SDS011;9211;48.818;9.312;2023-12-20T01:07:20;2.90;;;1.20;;
18172;SDS011;9211;48.818;9.312;2023-12-20T01:09:47;2.30;;;1.10;;
18172;SDS011;9211;48.818;9.312;2023-12-20T01:12:14;4.53;;;1.20;;
18172;SDS011;9211;48.818;9.312;2023-12-20T01:14:41;2.75;;;1.13;;
18172;SDS011;9211;48.818;9.312;2023-12-20T01:17:08;1.95;;;1.10;;
18172;SDS011;9211;48.818;9.312;2023-12-20T01:19:35;3.42;;;1.27;;
18172;SDS011;9211;48.818;9.312;2023-12-20T01:22:01;2.63;;;1.10;;
18172;SDS011;9211;48.818;9.312;2023-12-20T01:24:30;5.22;;;1.58;;
18172;SDS011;9211;48.818;9.312;2023-12-20T01:26:57;2.85;;;1.40;;
18172;SDS011;9211;48.818;9.312;2023-12-20T01:29:23;2.55;;;1.33;;
18172;SDS011;9211;48.818;9.312;2023-12-20T01:31:50;2.42;;;1.30;;
18172;SDS011;9211;48.818;9.312;2023-12-20T01:34:17;3.55;;;1.38;;
18172;SDS011;9211;48.818;9.312;2023-12-20T01:36:44;3.90;;;1.50;;
18172;SDS011;9211;48.818;9.312;2023-12-20T01:39:11;4.10;;;1.40;;
18172;SDS011;9211;48.818;9.312;2023-12-20T01:41:40;2.92;;;1.40;;
18172;SDS011;9211;48.818;9.312;2023-12-20T01:44:07;2.17;;;1.20;;
18172;SDS011;9211;48.818;9.312;2023-12-20T01:46:34;3.15;;;1.50;;
18172;SDS011;9211;48.818;9.312;2023-12-20T01:49:00;2.60;;;1.30;;
18172;SDS011;9211;48.818;9.312;2023-12-20T01:51:28;2.75;;;1.40;;
18172;SDS011;9211;48.818;9.312;2023-12-20T01:53:55;2.90;;;1.50;;
18172;SDS011;9211;48.818;9.312;2023-12-20T01:56:24;2.92;;;1.40;;
18172;SDS011;9211;48.818;9.312;2023-12-20T01:58:52;3.40;;;1.25;;
18172;SDS011;9211;48.818;9.312;2023-12-20T02:01:20;3.60;;;1.40;;
18172;SDS011;9211;48.818;9.312;2023-12-20T02:03:47;1.73;;;1.27;;
18172;SDS011;9211;48.818;9.312;2023-12-20T02:06:14;1.83;;;1.10;;
18172;SDS011;9211;48.818;9.312;2023-12-20T02:08:42;2.92;;;1.45;;
18172;SDS011;9211;48.818;9.312;2023-12-20T02:11:09;2.60;;;1.40;;
18172;SDS011;9211;48.818;9.312;2023-12-20T02:13:36;3.15;;;1.52;;
18172;SDS011;9211;48.818;9.312;2023-12-20T02:16:05;3.42;;;1.60;;
18172;SDS011;9211;48.818;9.312;2023-12-20T02:18:32;3.78;;;1.80;;
18172;SDS011;9211;48.818;9.312;2023-12-20T02:20:59;4.07;;;1.60;;
18172;SDS011;9211;48.818;9.312;2023-12-20T02:23:27;3.00;;;1.60;;
18172;SDS011;9211;48.818;9.312;2023-12-20T02:25:54;4.25;;;1.58;;
18172;SDS011;9211;48.818;9.312;2023-12-20T02:28:21;3.85;;;1.80;;
18172;SDS011;9211;48.818;9.312;2023-12-20T02:30:48;3.15;;;1.70;;
18172;SDS011;9211;48.818;9.312;2023-12-20T02:33:15;4.63;;;1.90;;
18172;SDS011;9211;48.818;9.312;2023-12-20T02:35:43;4.35;;;1.90;;
18172;SDS011;9211;48.818;9.312;2023-12-20T02:38:10;3.83;;;1.77;;
18172;SDS011;9211;48.818;9.312;2023-12-20T02:40:38;4.50;;;1.83;;
18172;SDS011;9211;48.818;9.312;2023-12-20T02:43:05;2.95;;;1.63;;
18172;SDS011;9211;48.818;9.312;2023-12-20T02:45:32;3.90;;;2.00;;
18172;SDS011;9211;48.818;9.312;2023-12-20T02:47:59;5.45;;;2.17;;
18172;SDS011;9211;48.818;9.312;2023-12-20T02:50:26;6.07;;;2.50;;
18172;SDS011;9211;48.818;9.312;2023-12-20T02:52:53;4.93;;;2.22;;
18172;SDS011;9211;48.818;9.312;2023-12-20T02:55:19;4.90;;;2.30;;
18172;SDS011;9211;48.818;9.312;2023-12-20T02:57:48;4.03;;;2.33;;
18172;SDS011;9211;48.818;9.312;2023-12-20T03:02:56;3.40;;;2.30;;
18172;SDS011;9211;48.818;9.312;2023-12-20T03:05:24;4.93;;;2.50;;
18172;SDS011;9211;48.818;9.312;2023-12-20T03:07:51;3.90;;;2.45;;
18172;SDS011;9211;48.818;9.312;2023-12-20T03:10:18;4.20;;;2.35;;
18172;SDS011;9211;48.818;9.312;2023-12-20T03:12:45;3.95;;;2.63;;
18172;SDS011;9211;48.818;9.312;2023-12-20T03:15:13;4.85;;;2.55;;
18172;SDS011;9211;48.818;9.312;2023-12-20T03:17:40;5.85;;;2.78;;
18172;SDS011;9211;48.818;9.312;2023-12-20T03:20:08;4.10;;;2.40;;
18172;SDS011;9211;48.818;9.312;2023-12-20T03:22:35;3.72;;;1.90;;
18172;SDS011;9211;48.818;9.312;2023-12-20T03:25:02;4.03;;;1.80;;
18172;SDS011;9211;48.818;9.312;2023-12-20T03:27:28;4.30;;;2.35;;
18172;SDS011;9211;48.818;9.312;2023-12-20T03:29:56;3.80;;;2.00;;
18172;SDS011;9211;48.818;9.312;2023-12-20T03:32:24;3.00;;;1.60;;
18172;SDS011;9211;48.818;9.312;2023-12-20T03:34:51;3.13;;;1.50;;
18172;SDS011;9211;48.818;9.312;2023-12-20T03:37:17;1.70;;;1.40;;
18172;SDS011;9211;48.818;9.312;2023-12-20T03:39:44;1.60;;;1.20;;
18172;SDS011;9211;48.818;9.312;2023-12-20T03:42:11;1.20;;;0.90;;
18172;SDS011;9211;48.818;9.312;2023-12-20T03:44:39;2.83;;;1.00;;
18172;SDS011;9211;48.818;9.312;2023-12-20T03:47:06;2.42;;;0.90;;
18172;SDS011;9211;48.818;9.312;2023-12-20T03:49:35;1.42;;;0.75;;
18172;SDS011;9211;48.818;9.312;2023-12-20T03:52:04;1.27;;;0.57;;
18172;SDS011;9211;48.818;9.312;2023-12-20T03:54:31;2.00;;;0.70;;
18172;SDS011;9211;48.818;9.312;2023-12-20T03:56:57;0.50;;;0.40;;
18172;SDS011;9211;48.818;9.312;2023-12-20T03:59:24;0.70;;;0.40;;
18172;SDS011;9211;48.818;9.312;2023-12-20T04:01:51;0.40;;;0.22;;
18172;SDS011;9211;48.818;9.312;2023-12-20T04:04:18;0.47;;;0.30;;
18172;SDS011;9211;48.818;9.312;2023-12-20T04:06:46;1.80;;;0.30;;
18172;SDS011;9211;48.818;9.312;2023-12-20T04:09:13;0.82;;;0.30;;
18172;SDS011;9211;48.818;9.312;2023-12-20T04:11:40;0.60;;;0.30;;
18172;SDS011;9211;48.818;9.312;2023-12-20T04:14:07;0.30;;;0.20;;
18172;SDS011;9211;48.818;9.312;2023-12-20T04:16:35;0.60;;;0.20;;
18172;SDS011;9211;48.818;9.312;2023-12-20T04:19:02;0.85;;;0.30;;
18172;SDS011;9211;48.818;9.312;2023-12-20T04:21:29;0.30;;;0.30;;
18172;SDS011;9211;48.818;9.312;2023-12-20T04:23:57;1.02;;;0.32;;
18172;SDS011;9211;48.818;9.312;2023-12-20T04:26:24;0.30;;;0.30;;
18172;SDS011;9211;48.818;9.312;2023-12-20T04:28:51;0.38;;;0.30;;
18172;SDS011;9211;48.818;9.312;2023-12-20T04:31:18;0.35;;;0.30;;
18172;SDS011;9211;48.818;9.312;2023-12-20T04:33:45;0.50;;;0.30;;
18172;SDS011;9211;48.818;9.312;2023-12-20T04:36:11;1.65;;;0.30;;
18172;SDS011;9211;48.818;9.312;2023-12-20T04:38:38;0.80;;;0.30;;
18172;SDS011;9211;48.818;9.312;2023-12-20T04:41:07;0.63;;;0.40;;
18172;SDS011;9211;48.818;9.312;2023-12-20T04:43:33;1.02;;;0.40;;
18172;SDS011;9211;48.818;9.312;2023-12-20T04:46:00;1.25;;;0.60;;
18172;SDS011;9211;48.818;9.312;2023-12-20T04:48:27;0.73;;;0.30;;
18172;SDS011;9211;48.818;9.312;2023-12-20T04:50:54;0.50;;;0.35;;
18172;SDS011;9211;48.818;9.312;2023-12-20T04:53:21;0.95;;;0.30;;
18172;SDS011;9211;48.818;9.312;2023-12-20T04:55:48;2.13;;;0.50;;
18172;SDS011;9211;48.818;9.312;2023-12-20T04:58:16;0.50;;;0.30;;
18172;SDS011;9211;48.818;9.312;2023-12-20T05:00:43;2.28;;;0.50;;
18172;SDS011;9211;48.818;9.312;2023-12-20T05:03:10;0.85;;;0.60;;
18172;SDS011;9211;48.818;9.312;2023-12-20T05:05:37;0.57;;;0.40;;
18172;SDS011;9211;48.818;9.312;2023-12-20T05:08:04;1.40;;;0.35;;
18172;SDS011;9211;48.818;9.312;2023-12-20T05:10:31;0.50;;;0.30;;
18172;SDS011;9211;48.818;9.312;2023-12-20T05:12:58;1.20;;;0.30;;
18172;SDS011;9211;48.818;9.312;2023-12-20T05:15:26;0.50;;;0.40;;
18172;SDS011;9211;48.818;9.312;2023-12-20T05:17:53;0.40;;;0.40;;
18172;SDS011;9211;48.818;9.312;2023-12-20T05:20:20;0.80;;;0.40;;
18172;SDS011;9211;48.818;9.312;2023-12-20T05:22:48;0.88;;;0.30;;
18172;SDS011;9211;48.818;9.312;2023-12-20T05:25:15;0.73;;;0.40;;
18172;SDS011;9211;48.818;9.312;2023-12-20T05:27:42;3.50;;;0.77;;
18172;SDS011;9211;48.818;9.312;2023-12-20T05:30:09;2.97;;;0.88;;
18172;SDS011;9211;48.818;9.312;2023-12-20T05:32:38;2.30;;;1.00;;
18172;SDS011;9211;48.818;9.312;2023-12-20T05:35:05;1.70;;;0.60;;
18172;SDS011;9211;48.818;9.312;2023-12-20T05:37:32;1.20;;;0.70;;
18172;SDS011;9211;48.818;9.312;2023-12-20T05:39:59;1.10;;;0.45;;
18172;SDS011;9211;48.818;9.312;2023-12-20T05:42:26;2.70;;;0.70;;
18172;SDS011;9211;48.818;9.312;2023-12-20T05:44:52;0.93;;;0.47;;
18172;SDS011;9211;48.818;9.312;2023-12-20T05:47:19;2.40;;;0.50;;
18172;SDS011;9211;48.818;9.312;2023-12-20T05:49:48;2.30;;;0.53;;
18172;SDS011;9211;48.818;9.312;2023-12-20T05:52:15;3.08;;;0.60;;
18172;SDS011;9211;48.818;9.312;2023-12-20T05:54:42;1.73;;;0.70;;
18172;SDS011;9211;48.818;9.312;2023-12-20T05:57:09;1.33;;;0.70;;
18172;SDS011;9211;48.818;9.312;2023-12-20T05:59:36;1.65;;;0.80;;
18172;SDS011;9211;48.818;9.312;2023-12-20T06:02:03;1.50;;;0.70;;
18172;SDS011;9211;48.818;9.312;2023-12-20T06:04:30;1.60;;;0.70;;
18172;SDS011;9211;48.818;9.312;2023-12-20T06:06:58;3.00;;;0.85;;
18172;SDS011;9211;48.818;9.312;2023-12-20T06:09:26;1.02;;;0.63;;
18172;SDS011;9211;48.818;9.312;2023-12-20T06:11:53;0.80;;;0.50;;
18172;SDS011;9211;48.818;9.312;2023-12-20T06:14:20;1.70;;;0.60;;
18172;SDS011;9211;48.818;9.312;2023-12-20T06:16:47;2.15;;;0.70;;
18172;SDS011;9211;48.818;9.312;2023-12-20T06:19:14;0.90;;;0.57;;
18172;SDS011;9211;48.818;9.312;2023-12-20T06:21:41;2.22;;;0.70;;
18172;SDS011;9211;48.818;9.312;2023-12-20T06:24:09;2.92;;;1.30;;
18172;SDS011;9211;48.818;9.312;2023-12-20T06:26:36;5.18;;;2.10;;
18172;SDS011;9211;48.818;9.312;2023-12-20T06:29:03;6.10;;;2.60;;
18172;SDS011;9211;48.818;9.312;2023-12-20T06:31:30;5.15;;;2.30;;
18172;SDS011;9211;48.818;9.312;2023-12-20T06:33:58;4.05;;;1.20;;
18172;SDS011;9211;48.818;9.312;2023-12-20T06:36:25;4.35;;;1.50;;
18172;SDS011;9211;48.818;9.312;2023-12-20T06:38:52;4.93;;;1.60;;
18172;SDS011;9211;48.818;9.312;2023-12-20T06:41:20;4.57;;;1.42;;
18172;SDS011;9211;48.818;9.312;2023-12-20T06:43:49;4.85;;;1.20;;
18172;SDS011;9211;48.818;9.312;2023-12-20T06:46:16;3.53;;;1.10;;
18172;SDS011;9211;48.818;9.312;2023-12-20T06:48:43;6.80;;;2.00;;
18172;SDS011;9211;48.818;9.312;2023-12-20T06:51:11;5.70;;;1.80;;
18172;SDS011;9211;48.818;9.312;2023-12-20T06:53:40;1.92;;;1.05;;
18172;SDS011;9211;48.818;9.312;2023-12-20T06:56:07;4.85;;;1.45;;
18172;SDS011;9211;48.818;9.312;2023-12-20T06:58:36;2.58;;;1.25;;
18172;SDS011;9211;48.818;9.312;2023-12-20T07:01:03;4.07;;;1.50;;
18172;SDS011;9211;48.818;9.312;2023-12-20T07:03:30;2.50;;;1.20;;
18172;SDS011;9211;48.818;9.312;2023-12-20T07:05:57;5.60;;;1.70;;
18172;SDS011;9211;48.818;9.312;2023-12-20T07:08:24;4.22;;;1.65;;
18172;SDS011;9211;48.818;9.312;2023-12-20T07:10:51;6.47;;;1.80;;
18172;SDS011;9211;48.818;9.312;2023-12-20T07:13:18;4.28;;;1.75;;
18172;SDS011;9211;48.818;9.312;2023-12-20T07:15:46;4.40;;;2.20;;
18172;SDS011;9211;48.818;9.312;2023-12-20T07:18:13;3.72;;;1.88;;
18172;SDS011;9211;48.818;9.312;2023-12-20T07:20:40;3.67;;;2.35;;
18172;SDS011;9211;48.818;9.312;2023-12-20T07:23:08;2.83;;;2.20;;
18172;SDS011;9211;48.818;9.312;2023-12-20T07:25:35;5.13;;;2.42;;
18172;SDS011;9211;48.818;9.312;2023-12-20T07:28:02;5.18;;;2.88;;
18172;SDS011;9211;48.818;9.312;2023-12-20T07:30:29;3.63;;;2.50;;
18172;SDS011;9211;48.818;9.312;2023-12-20T07:32:57;4.30;;;3.10;;
18172;SDS011;9211;48.818;9.312;2023-12-20T07:35:24;4.45;;;3.00;;
18172;SDS011;9211;48.818;9.312;2023-12-20T07:37:51;5.80;;;3.10;;
18172;SDS011;9211;48.818;9.312;2023-12-20T07:40:18;5.63;;;3.55;;
18172;SDS011;9211;48.818;9.312;2023-12-20T07:42:45;4.85;;;3.10;;
18172;SDS011;9211;48.818;9.312;2023-12-20T07:45:12;3.60;;;2.70;;
18172;SDS011;9211;48.818;9.312;2023-12-20T07:47:38;4.05;;;2.95;;
18172;SDS011;9211;48.818;9.312;2023-12-20T07:50:07;3.70;;;2.90;;
18172;SDS011;9211;48.818;9.312;2023-12-20T07:52:35;3.78;;;2.92;;
18172;SDS011;9211;48.818;9.312;2023-12-20T07:55:02;3.92;;;2.78;;
18172;SDS011;9211;48.818;9.312;2023-12-20T07:57:29;3.20;;;2.53;;
18172;SDS011;9211;48.818;9.312;2023-12-20T07:59:56;3.80;;;2.75;;
18172;SDS011;9211;48.818;9.312;2023-12-20T08:02:23;3.25;;;2.40;;
18172;SDS011;9211;48.818;9.312;2023-12-20T08:04:50;4.03;;;2.63;;
18172;SDS011;9211;48.818;9.312;2023-12-20T08:07:18;4.20;;;2.60;;
18172;SDS011;9211;48.818;9.312;2023-12-20T08:09:45;3.95;;;2.60;;
18172;SDS011;9211;48.818;9.312;2023-12-20T08:12:11;3.42;;;2.60;;
18172;SDS011;9211;48.818;9.312;2023-12-20T08:14:38;5.03;;;2.80;;
18172;SDS011;9211;48.818;9.312;2023-12-20T08:17:05;3.30;;;2.67;;
18172;SDS011;9211;48.818;9.312;2023-12-20T08:19:32;4.88;;;2.83;;
18172;SDS011;9211;48.818;9.312;2023-12-20T08:21:59;4.13;;;2.60;;
18172;SDS011;9211;48.818;9.312;2023-12-20T08:24:27;5.35;;;2.90;;
18172;SDS011;9211;48.818;9.312;2023-12-20T08:26:55;5.82;;;3.20;;
18172;SDS011;9211;48.818;9.312;2023-12-20T08:29:22;5.60;;;2.93;;
18172;SDS011;9211;48.818;9.312;2023-12-20T08:31:51;5.60;;;3.13;;
18172;SDS011;9211;48.818;9.312;2023-12-20T08:34:19;5.15;;;3.30;;
18172;SDS011;9211;48.818;9.312;2023-12-20T08:36:46;6.43;;;3.30;;
18172;SDS011;9211;48.818;9.312;2023-12-20T08:39:13;7.72;;;3.40;;
18172;SDS011;9211;48.818;9.312;2023-12-20T08:41:41;7.95;;;3.75;;
18172;SDS011;9211;48.818;9.312;2023-12-20T08:44:08;6.23;;;2.90;;
18172;SDS011;9211;48.818;9.312;2023-12-20T08:46:35;7.07;;;3.30;;
18172;SDS011;9211;48.818;9.312;2023-12-20T08:49:02;7.13;;;2.90;;
18172;SDS011;9211;48.818;9.312;2023-12-20T08:51:30;6.40;;;3.35;;
18172;SDS011;9211;48.818;9.312;2023-12-20T08:53:57;5.93;;;3.13;;
18172;SDS011;9211;48.818;9.312;2023-12-20T08:56:24;6.32;;;3.30;;
18172;SDS011;9211;48.818;9.312;2023-12-20T08:58:52;6.78;;;3.13;;
18172;SDS011;9211;48.818;9.312;2023-12-20T09:01:19;6.22;;;3.30;;
18172;SDS011;9211;48.818;9.312;2023-12-20T09:03:46;5.93;;;3.00;;
18172;SDS011;9211;48.818;9.312;2023-12-20T09:06:12;5.07;;;2.97;;
18172;SDS011;9211;48.818;9.312;2023-12-20T09:08:39;5.93;;;2.83;;
18172;SDS011;9211;48.818;9.312;2023-12-20T09:11:06;5.37;;;3.10;;
18172;SDS011;9211;48.818;9.312;2023-12-20T09:13:33;5.03;;;2.70;;
18172;SDS011;9211;48.818;9.312;2023-12-20T09:16:02;5.35;;;2.70;;
18172;SDS011;9211;48.818;9.312;2023-12-20T09:18:29;5.15;;;3.10;;
18172;SDS011;9211;48.818;9.312;2023-12-20T09:20:56;6.32;;;2.78;;
18172;SDS011;9211;48.818;9.312;2023-12-20T09:23:23;6.00;;;2.92;;
18172;SDS011;9211;48.818;9.312;2023-12-20T09:25:50;5.47;;;3.00;;
18172;SDS011;9211;48.818;9.312;2023-12-20T09:28:17;6.75;;;2.85;;
18172;SDS011;9211;48.818;9.312;2023-12-20T09:30:44;4.80;;;2.70;;
18172;SDS011;9211;48.818;9.312;2023-12-20T09:33:12;3.33;;;2.50;;
18172;SDS011;9211;48.818;9.312;2023-12-20T09:35:39;5.03;;;2.27;;
18172;SDS011;9211;48.818;9.312;2023-12-20T09:38:06;3.97;;;2.20;;
18172;SDS011;9211;48.818;9.312;2023-12-20T09:40:33;4.55;;;2.70;;
18172;SDS011;9211;48.818;9.312;2023-12-20T09:43:03;4.22;;;2.60;;
18172;SDS011;9211;48.818;9.312;2023-12-20T09:45:31;4.43;;;2.57;;
18172;SDS011;9211;48.818;9.312;2023-12-20T09:47:58;5.03;;;2.28;;
18172;SDS011;9211;48.818;9.312;2023-12-20T09:50:26;4.85;;;2.45;;
18172;SDS011;9211;48.818;9.312;2023-12-20T09:52:55;7.40;;;2.10;;
18172;SDS011;9211;48.818;9.312;2023-12-20T09:55:25;4.45;;;2.13;;
18172;SDS011;9211;48.818;9.312;2023-12-20T09:57:53;6.95;;;2.10;;
18172;SDS011;9211;48.818;9.312;2023-12-20T10:00:20;4.82;;;1.80;;
18172;SDS011;9211;48.818;9.312;2023-12-20T10:02:49;8.38;;;2.13;;
18172;SDS011;9211;48.818;9.312;2023-12-20T10:05:24;3.43;;;1.60;;
18172;SDS011;9211;48.818;9.312;2023-12-20T10:07:54;5.75;;;1.60;;
18172;SDS011;9211;48.818;9.312;2023-12-20T10:10:21;8.00;;;1.77;;
18172;SDS011;9211;48.818;9.312;2023-12-20T10:13:00;6.35;;;1.70;;
18172;SDS011;9211;48.818;9.312;2023-12-20T10:15:29;7.25;;;1.88;;
18172;SDS011;9211;48.818;9.312;2023-12-20T10:17:57;5.50;;;1.45;;
18172;SDS011;9211;48.818;9.312;2023-12-20T10:20:24;7.07;;;1.50;;
18172;SDS011;9211;48.818;9.312;2023-12-20T10:22:53;6.75;;;1.52;;
18172;SDS011;9211;48.818;9.312;2023-12-20T10:25:20;6.03;;;1.55;;
18172;SDS011;9211;48.818;9.312;2023-12-20T10:27:49;6.53;;;1.63;;
18172;SDS011;9211;48.818;9.312;2023-12-20T10:30:17;5.93;;;1.65;;
18172;SDS011;9211;48.818;9.312;2023-12-20T10:32:43;7.75;;;1.40;;
18172;SDS011;9211;48.818;9.312;2023-12-20T10:35:10;6.78;;;1.40;;
18172;SDS011;9211;48.818;9.312;2023-12-20T10:37:37;6.25;;;1.50;;
18172;SDS011;9211;48.818;9.312;2023-12-20T10:40:06;4.70;;;1.27;;
18172;SDS011;9211;48.818;9.312;2023-12-20T10:42:34;8.73;;;1.67;;
18172;SDS011;9211;48.818;9.312;2023-12-20T10:45:02;7.85;;;1.50;;
18172;SDS011;9211;48.818;9.312;2023-12-20T10:47:30;10.13;;;1.85;;
18172;SDS011;9211;48.818;9.312;2023-12-20T10:49:58;8.25;;;1.63;;
18172;SDS011;9211;48.818;9.312;2023-12-20T10:52:26;7.93;;;1.85;;
18172;SDS011;9211;48.818;9.312;2023-12-20T10:54:55;5.60;;;1.50;;
18172;SDS011;9211;48.818;9.312;2023-12-20T10:57:23;5.22;;;1.77;;
18172;SDS011;9211;48.818;9.312;2023-12-20T10:59:53;7.40;;;1.60;;
18172;SDS011;9211;48.818;9.312;2023-12-20T11:02:22;7.15;;;1.83;;
18172;SDS011;9211;48.818;9.312;2023-12-20T11:04:50;8.55;;;1.75;;
18172;SDS011;9211;48.818;9.312;2023-12-20T11:07:21;6.80;;;1.50;;
18172;SDS011;9211;48.818;9.312;2023-12-20T11:09:55;4.40;;;1.37;;
18172;SDS011;9211;48.818;9.312;2023-12-20T11:12:32;6.82;;;1.35;;
18172;SDS011;9211;48.818;9.312;2023-12-20T11:15:04;6.07;;;1.58;;
18172;SDS011;9211;48.818;9.312;2023-12-20T11:17:32;5.97;;;1.52;;
18172;SDS011;9211;48.818;9.312;2023-12-20T11:20:07;7.25;;;1.40;;
18172;SDS011;9211;48.818;9.312;2023-12-20T11:22:37;5.40;;;1.20;;
18172;SDS011;9211;48.818;9.312;2023-12-20T11:25:07;5.90;;;1.50;;
18172;SDS011;9211;48.818;9.312;2023-12-20T11:27:40;8.07;;;1.50;;
18172;SDS011;9211;48.818;9.312;2023-12-20T11:30:10;6.65;;;1.58;;
18172;SDS011;9211;48.818;9.312;2023-12-20T11:32:40;6.72;;;1.67;;
18172;SDS011;9211;48.818;9.312;2023-12-20T11:35:18;9.07;;;2.00;;
18172;SDS011;9211;48.818;9.312;2023-12-20T11:37:45;6.85;;;1.65;;
18172;SDS011;9211;48.818;9.312;2023-12-20T11:40:14;8.77;;;1.83;;
18172;SDS011;9211;48.818;9.312;2023-12-20T11:42:44;9.40;;;2.10;;
18172;SDS011;9211;48.818;9.312;2023-12-20T11:45:13;7.40;;;1.87;;
18172;SDS011;9211;48.818;9.312;2023-12-20T11:47:42;8.60;;;1.70;;
18172;SDS011;9211;48.818;9.312;2023-12-20T11:50:10;6.18;;;1.70;;
18172;SDS011;9211;48.818;9.312;2023-12-20T11:52:37;7.63;;;1.70;;
18172;SDS011;9211;48.818;9.312;2023-12-20T11:55:04;4.65;;;1.50;;
18172;SDS011;9211;48.818;9.312;2023-12-20T11:57:32;6.87;;;1.90;;
18172;SDS011;9211;48.818;9.312;2023-12-20T12:00:01;6.90;;;1.65;;
18172;SDS011;9211;48.818;9.312;2023-12-20T12:02:37;8.67;;;1.77;;
18172;SDS011;9211;48.818;9.312;2023-12-20T12:05:04;7.50;;;1.77;;
18172;SDS011;9211;48.818;9.312;2023-12-20T12:07:33;7.72;;;2.08;;
18172;SDS011;9211;48.818;9.312;2023-12-20T12:10:00;6.28;;;1.80;;
18172;SDS011;9211;48.818;9.312;2023-12-20T12:12:28;10.20;;;1.77;;
18172;SDS011;9211;48.818;9.312;2023-12-20T12:14:56;6.93;;;2.00;;
18172;SDS011;9211;48.818;9.312;2023-12-20T12:17:24;7.55;;;1.77;;
18172;SDS011;9211;48.818;9.312;2023-12-20T12:19:52;9.87;;;1.80;;
18172;SDS011;9211;48.818;9.312;2023-12-20T12:22:29;5.90;;;1.77;;
18172;SDS011;9211;48.818;9.312;2023-12-20T12:24:58;7.57;;;1.85;;
18172;SDS011;9211;48.818;9.312;2023-12-20T12:27:26;7.35;;;1.52;;
18172;SDS011;9211;48.818;9.312;2023-12-20T12:30:00;7.75;;;1.98;;
18172;SDS011;9211;48.818;9.312;2023-12-20T12:32:30;7.50;;;1.80;;
18172;SDS011;9211;48.818;9.312;2023-12-20T12:34:57;10.52;;;2.05;;
18172;SDS011;9211;48.818;9.312;2023-12-20T12:37:24;7.78;;;1.70;;
18172;SDS011;9211;48.818;9.312;2023-12-20T12:39:53;8.95;;;1.88;;
18172;SDS011;9211;48.818;9.312;2023-12-20T12:42:20;6.53;;;1.80;;
18172;SDS011;9211;48.818;9.312;2023-12-20T12:44:46;6.90;;;1.60;;
18172;SDS011;9211;48.818;9.312;2023-12-20T12:47:13;7.65;;;1.63;;
18172;SDS011;9211;48.818;9.312;2023-12-20T12:49:42;6.45;;;1.60;;
18172;SDS011;9211;48.818;9.312;2023-12-20T12:52:08;6.30;;;1.48;;
18172;SDS011;9211;48.818;9.312;2023-12-20T12:54:35;6.88;;;1.60;;
18172;SDS011;9211;48.818;9.312;2023-12-20T12:57:03;9.40;;;1.60;;
18172;SDS011;9211;48.818;9.312;2023-12-20T12:59:30;6.63;;;1.73;;
18172;SDS011;9211;48.818;9.312;2023-12-20T13:01:57;7.43;;;2.13;;
18172;SDS011;9211;48.818;9.312;2023-12-20T13:04:24;8.45;;;1.85;;
18172;SDS011;9211;48.818;9.312;2023-12-20T13:06:52;8.43;;;1.88;;
18172;SDS011;9211;48.818;9.312;2023-12-20T13:09:20;5.82;;;1.70;;
18172;SDS011;9211;48.818;9.312;2023-12-20T13:11:47;5.63;;;1.70;;
18172;SDS011;9211;48.818;9.312;2023-12-20T13:14:14;8.15;;;1.60;;
18172;SDS011;9211;48.818;9.312;2023-12-20T13:16:42;6.72;;;1.60;;
18172;SDS011;9211;48.818;9.312;2023-12-20T13:19:10;6.80;;;1.73;;
18172;SDS011;9211;48.818;9.312;2023-12-20T13:21:37;8.57;;;2.05;;
18172;SDS011;9211;48.818;9.312;2023-12-20T13:24:06;6.20;;;1.70;;
18172;SDS011;9211;48.818;9.312;2023-12-20T13:26:33;6.43;;;1.60;;
18172;SDS011;9211;48.818;9.312;2023-12-20T13:29:00;5.88;;;1.70;;
18172;SDS011;9211;48.818;9.312;2023-12-20T13:31:27;8.07;;;1.70;;
18172;SDS011;9211;48.818;9.312;2023-12-20T13:33:53;8.48;;;1.67;;
18172;SDS011;9211;48.818;9.312;2023-12-20T13:36:20;5.72;;;1.60;;
18172;SDS011;9211;48.818;9.312;2023-12-20T13:38:47;7.45;;;1.70;;
18172;SDS011;9211;48.818;9.312;2023-12-20T13:41:16;7.22;;;1.60;;
18172;SDS011;9211;48.818;9.312;2023-12-20T13:43:43;8.13;;;1.80;;
18172;SDS011;9211;48.818;9.312;2023-12-20T13:46:10;5.40;;;1.50;;
18172;SDS011;9211;48.818;9.312;2023-12-20T13:48:39;6.93;;;2.10;;
18172;SDS011;9211;48.818;9.312;2023-12-20T13:51:06;5.85;;;1.85;;
18172;SDS011;9211;48.818;9.312;2023-12-20T13:53:33;6.32;;;1.73;;
18172;SDS011;9211;48.818;9.312;2023-12-20T13:56:00;6.25;;;1.30;;
18172;SDS011;9211;48.818;9.312;2023-12-20T13:58:28;6.28;;;1.80;;
18172;SDS011;9211;48.818;9.312;2023-12-20T14:00:56;8.05;;;1.40;;
18172;SDS011;9211;48.818;9.312;2023-12-20T14:03:23;5.55;;;1.50;;
18172;SDS011;9211;48.818;9.312;2023-12-20T14:05:50;8.17;;;1.77;;
18172;SDS011;9211;48.818;9.312;2023-12-20T14:08:17;5.70;;;2.10;;
18172;SDS011;9211;48.818;9.312;2023-12-20T14:10:43;7.55;;;2.55;;
18172;SDS011;9211;48.818;9.312;2023-12-20T14:13:10;7.88;;;2.30;;
18172;SDS011;9211;48.818;9.312;2023-12-20T14:15:38;6.28;;;2.10;;
18172;SDS011;9211;48.818;9.312;2023-12-20T14:18:05;11.63;;;2.53;;
18172;SDS011;9211;48.818;9.312;2023-12-20T14:20:33;6.38;;;1.50;;
18172;SDS011;9211;48.818;9.312;2023-12-20T14:23:01;6.22;;;1.75;;
18172;SDS011;9211;48.818;9.312;2023-12-20T14:25:27;5.95;;;1.50;;
18172;SDS011;9211;48.818;9.312;2023-12-20T14:27:55;4.30;;;1.50;;
18172;SDS011;9211;48.818;9.312;2023-12-20T14:30:23;7.47;;;1.88;;
18172;SDS011;9211;48.818;9.312;2023-12-20T14:32:51;6.80;;;1.50;;
18172;SDS011;9211;48.818;9.312;2023-12-20T14:35:18;7.70;;;1.80;;
18172;SDS011;9211;48.818;9.312;2023-12-20T14:37:45;6.95;;;1.75;;
18172;SDS011;9211;48.818;9.312;2023-12-20T14:40:12;6.00;;;1.75;;
18172;SDS011;9211;48.818;9.312;2023-12-20T14:42:41;8.15;;;2.10;;
18172;SDS011;9211;48.818;9.312;2023-12-20T14:45:08;7.57;;;1.75;;
18172;SDS011;9211;48.818;9.312;2023-12-20T14:47:36;5.40;;;1.50;;
18172;SDS011;9211;48.818;9.312;2023-12-20T14:50:04;6.53;;;1.98;;
18172;SDS011;9211;48.818;9.312;2023-12-20T14:52:32;6.40;;;1.95;;
18172;SDS011;9211;48.818;9.312;2023-12-20T14:55:00;6.07;;;1.98;;
18172;SDS011;9211;48.818;9.312;2023-12-20T14:57:27;6.10;;;1.77;;
18172;SDS011;9211;48.818;9.312;2023-12-20T14:59:54;5.50;;;1.65;;
18172;SDS011;9211;48.818;9.312;2023-12-20T15:02:21;5.90;;;1.40;;
18172;SDS011;9211;48.818;9.312;2023-12-20T15:04:48;5.60;;;1.52;;